Time;durP1;ratioP1;P1;durP2;ratioP2;P2;SDS_P1;SDS_P2;PMS_P1;PMS_P2;Temp;Humidity;BMP_temperature;BMP_pressure;BME280_temperature;BME280_humidity;BME280_pressure;Samples;Min_cycle;Max_cycle;Signal;HPM_P1;HPM_P2
2021/06/07 00:00:38;;;;;;;9.48;5.75;;;;;;;24.42;50.44;101056.97;146689;565;46029;-70
2021/06/07 00:03:09;;;;;;;11.43;5.90;;;;;;;24.43;50.69;101056.00;146692;588;46021;-68
2021/06/07 00:05:40;;;;;;;11.77;5.65;;;;;;;24.41;50.68;101057.97;146689;566;46010;-67
2021/06/07 00:08:11;;;;;;;9.30;5.78;;;;;;;24.37;51.05;101053.78;146691;606;46020;-67
2021/06/07 00:10:42;;;;;;;9.68;6.00;;;;;;;24.37;50.94;101061.84;146690;572;46010;-67
2021/06/07 00:13:14;;;;;;;11.27;5.87;;;;;;;24.34;51.27;101054.06;146691;586;46020;-66
2021/06/07 00:15:45;;;;;;;11.68;5.35;;;;;;;24.33;50.72;101053.22;146688;577;46016;-68
2021/06/07 00:18:16;;;;;;;9.73;5.60;;;;;;;24.32;50.89;101064.06;146693;637;46021;-69
2021/06/07 00:20:54;;;;;;;11.27;5.15;;;;;;;24.32;51.46;101056.88;146690;591;46902;-68
2021/06/07 00:23:25;;;;;;;10.95;5.22;;;;;;;24.27;51.55;101058.22;146692;563;46008;-67
2021/06/07 00:25:56;;;;;;;10.07;4.70;;;;;;;24.25;51.44;101052.09;146691;609;46014;-67
2021/06/07 00:28:27;;;;;;;8.40;4.78;;;;;;;24.26;52.07;101046.66;146691;564;46008;-69
2021/06/07 00:30:58;;;;;;;7.55;5.20;;;;;;;24.25;52.17;101047.63;146688;589;46016;-68
2021/06/07 00:33:29;;;;;;;8.05;4.47;;;;;;;24.23;52.89;101037.97;146692;602;46021;-68
2021/06/07 00:36:01;;;;;;;6.47;4.47;;;;;;;24.23;52.81;101036.13;146690;571;46010;-67
2021/06/07 00:38:32;;;;;;;6.95;4.50;;;;;;;24.21;53.01;101037.25;146692;570;46008;-68
2021/06/07 00:41:06;;;;;;;7.12;4.60;;;;;;;24.22;53.63;101034.47;146689;583;46017;-68
2021/06/07 00:43:37;;;;;;;10.13;5.10;;;;;;;24.22;53.35;101044.31;146694;574;46008;-68
2021/06/07 00:46:07;;;;;;;9.88;5.45;;;;;;;24.21;53.47;101042.59;146688;569;46010;-67
2021/06/07 00:48:38;;;;;;;9.48;5.22;;;;;;;24.23;53.29;101037.97;146693;585;46020;-67
2021/06/07 00:51:11;;;;;;;10.27;4.95;;;;;;;24.21;53.19;101037.25;146690;563;46010;-67
2021/06/07 00:53:41;;;;;;;12.10;5.07;;;;;;;24.23;52.65;101033.47;146690;641;47008;-66
2021/06/07 00:56:13;;;;;;;9.05;5.05;;;;;;;24.20;52.77;101036.41;146690;620;46014;-66
2021/06/07 00:58:47;;;;;;;9.07;5.32;;;;;;;24.22;52.86;101030.91;146694;619;46020;-66
2021/06/07 01:01:24;;;;;;;10.52;5.10;;;;;;;24.17;53.56;101042.84;146689;573;46010;-67
2021/06/07 01:03:57;;;;;;;8.20;5.00;;;;;;;24.19;53.54;101041.88;146692;689;46020;-66
2021/06/07 01:06:29;;;;;;;7.97;4.90;;;;;;;24.15;53.51;101041.28;146690;607;46465;-67
2021/06/07 01:09:00;;;;;;;8.15;5.12;;;;;;;24.15;53.30;101042.16;146691;612;46020;-65
2021/06/07 01:11:33;;;;;;;9.43;5.10;;;;;;;24.12;52.87;101042.38;146689;602;46010;-67
2021/06/07 01:14:05;;;;;;;9.03;5.17;;;;;;;24.11;53.00;101047.84;146689;564;47008;-66
2021/06/07 01:16:36;;;;;;;8.52;5.05;;;;;;;24.07;53.04;101033.87;146693;633;46016;-67
2021/06/07 01:19:09;;;;;;;9.75;5.12;;;;;;;24.02;53.10;101033.37;146689;588;46021;-66
2021/06/07 01:21:40;;;;;;;9.82;5.45;;;;;;;23.97;53.12;101033.72;146689;584;47902;-66
2021/06/07 01:24:11;;;;;;;9.52;5.47;;;;;;;23.96;52.87;101037.41;146693;583;46008;-66
2021/06/07 01:26:42;;;;;;;8.80;5.30;;;;;;;23.95;52.65;101038.38;146689;572;46010;-66
2021/06/07 01:29:13;;;;;;;9.88;5.47;;;;;;;23.95;52.54;101040.19;146692;608;46020;-66
2021/06/07 01:31:43;;;;;;;12.50;5.55;;;;;;;23.93;52.82;101037.63;146689;598;46011;-66
2021/06/07 01:34:14;;;;;;;7.35;5.00;;;;;;;23.92;52.99;101041.31;146689;641;47008;-66
2021/06/07 01:36:44;;;;;;;9.20;5.18;;;;;;;23.92;53.32;101046.66;146693;585;46010;-67
2021/06/07 01:39:15;;;;;;;8.90;5.00;;;;;;;23.94;53.77;101043.84;146691;576;46907;-66
2021/06/07 01:41:45;;;;;;;8.30;5.25;;;;;;;23.95;53.54;101038.38;146689;606;46017;-67
2021/06/07 01:44:16;;;;;;;8.77;5.03;;;;;;;23.90;53.64;101050.44;146690;564;47008;-67
2021/06/07 01:46:46;;;;;;;10.00;6.05;;;;;;;23.82;53.69;101059.91;146691;577;46014;-66
2021/06/07 01:49:17;;;;;;;8.73;5.28;;;;;;;23.77;53.97;101059.41;146696;587;45021;-66
2021/06/07 01:51:48;;;;;;;9.60;5.30;;;;;;;23.77;54.29;101061.22;146688;610;46016;-66
2021/06/07 01:54:18;;;;;;;9.60;5.53;;;;;;;23.69;54.55;101056.47;146693;604;46021;-66
2021/06/07 01:56:48;;;;;;;10.40;5.50;;;;;;;23.64;54.80;101053.31;146689;620;46014;-68
2021/06/07 01:59:19;;;;;;;9.32;5.60;;;;;;;23.56;55.18;101047.69;146692;645;46008;-68
2021/06/07 02:01:52;;;;;;;8.90;5.35;;;;;;;23.52;55.30;101046.22;146689;683;47014;-67
2021/06/07 02:04:22;;;;;;;11.57;5.50;;;;;;;23.46;55.45;101053.75;146695;725;46008;-67
2021/06/07 02:06:53;;;;;;;9.73;5.55;;;;;;;23.43;55.50;101062.03;146689;657;46016;-67
2021/06/07 02:09:23;;;;;;;9.90;5.55;;;;;;;23.44;55.24;101071.78;146691;582;46008;-67
2021/06/07 02:11:54;;;;;;;10.65;5.20;;;;;;;23.48;55.85;101070.56;146688;565;46018;-67
2021/06/07 02:14:25;;;;;;;8.80;5.32;;;;;;;23.45;56.15;101062.75;146694;574;45050;-67
2021/06/07 02:16:56;;;;;;;8.75;5.50;;;;;;;23.43;56.29;101070.06;146687;598;46017;-66
2021/06/07 02:19:27;;;;;;;9.35;5.37;;;;;;;23.39;56.39;101067.72;146691;649;46020;-67
2021/06/07 02:21:58;;;;;;;8.85;5.70;;;;;;;23.37;56.09;101070.53;146689;642;46014;-67
2021/06/07 02:24:28;;;;;;;13.00;5.55;;;;;;;23.37;56.11;101075.03;146693;566;46009;-67
2021/06/07 02:26:59;;;;;;;8.38;5.30;;;;;;;23.33;56.27;101074.41;146690;618;46010;-67
2021/06/07 02:29:30;;;;;;;10.75;5.75;;;;;;;23.32;56.60;101072.72;146695;563;46008;-67
2021/06/07 02:32:00;;;;;;;7.37;5.20;;;;;;;23.32;56.83;101072.72;146690;585;46014;-67
2021/06/07 02:34:31;;;;;;;9.73;5.65;;;;;;;23.33;56.91;101074.41;146692;569;46020;-67
2021/06/07 02:37:02;;;;;;;11.27;5.70;;;;;;;23.34;57.23;101076.12;146690;633;46016;-68
2021/06/07 02:39:32;;;;;;;11.90;5.20;;;;;;;23.35;57.46;101076.97;146693;661;46008;-67
2021/06/07 02:42:15;;;;;;;10.18;5.43;;;;;;;23.34;57.47;101075.28;146690;591;46016;-67
2021/06/07 02:44:49;;;;;;;10.68;5.75;;;;;;;23.33;58.15;101063.69;146694;577;46008;-67
2021/06/07 02:47:19;;;;;;;10.93;5.60;;;;;;;23.33;58.58;101061.03;146691;580;46017;-67
2021/06/07 02:49:50;;;;;;;12.30;6.10;;;;;;;23.34;58.45;101065.41;146693;569;46020;-67
2021/06/07 02:52:20;;;;;;;9.45;5.45;;;;;;;23.35;58.54;101059.09;146690;576;46010;-67
2021/06/07 02:54:51;;;;;;;12.73;5.75;;;;;;;23.36;58.58;101059.94;146695;616;46008;-66
2021/06/07 02:57:22;;;;;;;11.70;6.12;;;;;;;23.34;58.96;101065.41;146689;571;46010;-67
2021/06/07 02:59:53;;;;;;;9.63;5.70;;;;;;;23.34;58.74;101065.41;146690;569;46020;-67
2021/06/07 03:02:23;;;;;;;10.40;5.97;;;;;;;23.35;59.04;101075.16;146690;587;46017;-67
2021/06/07 03:04:54;;;;;;;11.23;5.60;;;;;;;23.36;59.01;101078.69;146692;572;46010;-67
2021/06/07 03:07:24;;;;;;;21.17;7.10;;;;;;;23.38;58.73;101072.25;146690;671;46016;-66
2021/06/07 03:09:54;;;;;;;12.98;5.60;;;;;;;23.41;59.03;101088.06;146691;586;46008;-65
2021/06/07 03:12:25;;;;;;;9.68;5.90;;;;;;;23.43;58.99;101091.50;146689;599;46010;-68
2021/06/07 03:14:55;;;;;;;13.32;5.80;;;;;;;23.44;59.06;101093.22;146692;574;46020;-67
2021/06/07 03:17:26;;;;;;;12.15;5.78;;;;;;;23.43;58.96;101093.34;146690;571;46017;-67
2021/06/07 03:19:57;;;;;;;12.25;5.62;;;;;;;23.43;58.88;101107.59;146695;731;46008;-67
2021/06/07 03:22:28;;;;;;;10.57;6.45;;;;;;;23.42;59.23;101115.75;146689;613;46025;-67
2021/06/07 03:24:58;;;;;;;14.85;6.20;;;;;;;23.40;59.25;101113.19;146692;601;46020;-67
2021/06/07 03:27:30;;;;;;;16.50;6.47;;;;;;;23.37;59.04;101113.41;146691;566;46010;-67
2021/06/07 03:30:01;;;;;;;12.65;6.50;;;;;;;23.35;59.30;101110.00;146695;576;46020;-68
2021/06/07 03:32:31;;;;;;;12.75;6.12;;;;;;;23.30;59.42;101106.81;146690;599;46011;-67
2021/06/07 03:35:04;;;;;;;11.55;6.47;;;;;;;23.24;59.24;101105.44;146693;583;46020;-68
2021/06/07 03:37:35;;;;;;;11.12;6.43;;;;;;;23.22;59.58;101099.34;146691;589;46016;-67
2021/06/07 03:40:09;;;;;;;13.95;6.07;;;;;;;23.18;59.74;101091.66;146693;595;46021;-64
2021/06/07 03:42:41;;;;;;;11.80;5.97;;;;;;;23.11;59.52;101076.03;146690;585;46010;-64
2021/06/07 03:45:13;;;;;;;10.52;6.00;;;;;;;23.09;59.64;101082.47;146693;571;46008;-66
2021/06/07 03:47:49;;;;;;;14.20;5.57;;;;;;;23.12;59.37;101082.22;146690;564;46017;-66
2021/06/07 03:50:23;;;;;;;8.75;5.78;;;;;;;23.13;58.66;101086.66;146693;563;46008;-66
2021/06/07 03:52:54;;;;;;;10.70;5.62;;;;;;;23.17;58.84;101084.59;146688;581;47010;-65
2021/06/07 03:55:27;;;;;;;13.02;5.50;;;;;;;23.21;58.41;101089.62;146692;575;47008;-66
2021/06/07 03:57:58;;;;;;;9.67;5.60;;;;;;;23.26;58.32;101092.78;146689;580;46010;-66
2021/06/07 04:00:33;;;;;;;10.80;5.10;;;;;;;23.29;58.04;101089.88;146695;569;46008;-68
2021/06/07 04:03:08;;;;;;;9.93;5.30;;;;;;;23.34;57.24;101092.19;146690;591;47010;-68
2021/06/07 04:05:40;;;;;;;9.75;4.97;;;;;;;23.32;56.36;101099.50;146695;572;46020;-67
2021/06/07 04:08:11;;;;;;;9.65;5.07;;;;;;;23.30;56.11;101101.44;146692;588;46015;-66
2021/06/07 04:10:45;;;;;;;14.65;5.10;;;;;;;23.29;56.00;101102.41;146695;576;46020;-66
2021/06/07 04:13:16;;;;;;;8.65;4.70;;;;;;;23.30;55.70;101101.44;146690;658;46014;-67
2021/06/07 04:15:46;;;;;;;10.93;5.32;;;;;;;23.32;55.86;101110.22;146694;599;46020;-67
2021/06/07 04:18:17;;;;;;;8.30;5.15;;;;;;;23.35;55.69;101110.00;146690;662;46020;-67
2021/06/07 04:20:47;;;;;;;10.25;5.12;;;;;;;23.37;55.59;101115.22;146693;566;46008;-68
2021/06/07 04:23:18;;;;;;;9.18;5.22;;;;;;;23.37;55.54;101112.56;146690;575;46011;-68
2021/06/07 04:25:48;;;;;;;11.32;5.12;;;;;;;23.38;55.31;101117.78;146691;588;46020;-68
2021/06/07 04:28:19;;;;;;;12.57;5.32;;;;;;;23.42;55.42;101119.25;146693;569;46010;-68
2021/06/07 04:30:49;;;;;;;7.12;4.95;;;;;;;23.48;55.28;101109.91;146693;619;47008;-68
2021/06/07 04:33:20;;;;;;;14.05;6.00;;;;;;;23.57;55.20;101100.31;146690;605;46016;-68
2021/06/07 04:35:51;;;;;;;13.23;6.05;;;;;;;23.66;54.99;101103.12;146694;569;46020;-67
2021/06/07 04:38:22;;;;;;;15.75;6.20;;;;;;;23.74;55.53;101099.88;146689;579;47010;-67
2021/06/07 04:40:52;;;;;;;13.48;6.22;;;;;;;23.82;55.11;101101.94;146694;575;46020;-67
2021/06/07 04:43:23;;;;;;;11.07;6.30;;;;;;;23.88;55.41;101106.88;146692;586;46010;-67
2021/06/07 04:45:53;;;;;;;15.98;6.15;;;;;;;23.97;55.63;101105.28;146694;643;46021;-67
2021/06/07 04:48:24;;;;;;;15.75;6.20;;;;;;;24.09;55.74;101112.34;146692;575;46016;-67
2021/06/07 04:50:55;;;;;;;15.00;6.20;;;;;;;24.22;55.86;101119.44;146696;659;46010;-67
2021/06/07 04:53:26;;;;;;;16.67;5.30;;;;;;;24.32;56.00;101126.62;146690;668;47010;-68
2021/06/07 04:55:56;;;;;;;11.85;5.18;;;;;;;24.45;55.18;101125.63;146695;611;46008;-68
2021/06/07 04:58:30;;;;;;;9.35;4.90;;;;;;;24.55;54.93;101129.31;146692;577;46010;-69
2021/06/07 05:01:05;;;;;;;11.05;5.10;;;;;;;24.66;55.08;101123.09;146694;588;46008;-67
2021/06/07 05:03:36;;;;;;;11.88;5.60;;;;;;;24.77;54.56;101114.16;146690;569;47010;-68
2021/06/07 05:06:06;;;;;;;17.83;5.57;;;;;;;24.86;54.40;101118.75;146692;582;46018;-68
2021/06/07 05:08:37;;;;;;;10.02;5.40;;;;;;;24.97;54.62;101120.56;146690;579;46010;-67
2021/06/07 05:11:07;;;;;;;10.93;5.50;;;;;;;25.02;54.43;101123.72;146694;570;46020;-68
2021/06/07 05:13:38;;;;;;;11.50;6.18;;;;;;;25.10;54.64;101123.09;146689;593;47018;-67
2021/06/07 05:16:10;;;;;;;16.20;6.37;;;;;;;25.11;55.04;101124.78;146695;608;46021;-67
2021/06/07 05:18:40;;;;;;;17.15;6.28;;;;;;;25.13;54.99;101125.53;146693;585;46010;-67
2021/06/07 05:21:11;;;;;;;15.15;6.30;;;;;;;25.17;55.20;101119.75;146695;608;46008;-66
2021/06/07 05:23:42;;;;;;;17.58;6.47;;;;;;;25.26;55.36;101109.22;146691;586;46017;-67
2021/06/07 05:26:12;;;;;;;15.23;5.78;;;;;;;25.34;54.96;101110.31;146694;582;46020;-67
2021/06/07 05:28:43;;;;;;;17.58;6.10;;;;;;;25.42;54.80;101103.44;146692;579;46016;-67
2021/06/07 05:31:13;;;;;;;16.75;5.95;;;;;;;25.51;54.63;101108.03;146692;589;46021;-67
2021/06/07 05:33:44;;;;;;;14.87;6.10;;;;;;;25.55;54.41;101101.41;146691;625;46014;-68
2021/06/07 05:36:14;;;;;;;14.73;6.10;;;;;;;25.59;54.74;101102.00;146695;601;46008;-68
2021/06/07 05:38:45;;;;;;;12.93;6.00;;;;;;;25.67;54.67;101107.56;146691;587;46031;-68
2021/06/07 05:41:15;;;;;;;18.92;5.57;;;;;;;25.75;54.55;101104.22;146693;595;46020;-69
2021/06/07 05:43:46;;;;;;;11.45;6.35;;;;;;;25.74;54.11;101114.13;146692;572;46016;-68
2021/06/07 05:46:16;;;;;;;15.73;6.00;;;;;;;25.76;54.61;101109.47;146693;596;47008;-69
2021/06/07 05:48:47;;;;;;;15.75;5.90;;;;;;;25.76;54.23;101111.31;146690;580;46016;-68
2021/06/07 05:51:17;;;;;;;11.15;5.90;;;;;;;25.80;54.33;101118.13;146694;595;46008;-68
2021/06/07 05:53:48;;;;;;;9.48;5.62;;;;;;;25.88;53.44;101118.31;146691;619;46016;-67
2021/06/07 05:56:18;;;;;;;15.90;6.30;;;;;;;25.83;52.99;101121.41;146694;597;46010;-67
2021/06/07 05:58:49;;;;;;;10.20;5.62;;;;;;;25.79;53.21;101117.28;146690;627;47020;-67
2021/06/07 06:01:19;;;;;;;12.30;5.78;;;;;;;25.80;53.10;101120.81;146692;610;46021;-68
2021/06/07 06:03:52;;;;;;;11.35;5.53;;;;;;;25.75;53.24;101121.22;146692;577;48016;-68
2021/06/07 06:06:22;;;;;;;12.45;5.90;;;;;;;25.88;52.67;101128.22;146695;569;46008;-68
2021/06/07 06:08:53;;;;;;;14.25;6.10;;;;;;;25.92;52.11;101135.06;146692;625;46014;-68
2021/06/07 06:11:24;;;;;;;12.98;5.87;;;;;;;25.90;52.31;101132.47;146694;587;46020;-68
2021/06/07 06:13:55;;;;;;;11.40;5.78;;;;;;;25.96;52.68;101134.63;146692;615;46014;-68
2021/06/07 06:16:26;;;;;;;11.43;5.62;;;;;;;26.10;51.79;101133.47;146691;581;46021;-68
2021/06/07 06:18:56;;;;;;;12.13;5.62;;;;;;;26.13;51.43;101135.03;146693;569;46014;-67
2021/06/07 06:21:27;;;;;;;11.45;5.90;;;;;;;26.13;52.14;101140.41;146692;650;46021;-68
2021/06/07 06:23:58;;;;;;;18.15;6.03;;;;;;;26.27;51.72;101141.87;146690;655;46017;-67
2021/06/07 06:26:28;;;;;;;12.50;5.97;;;;;;;26.22;51.88;101141.44;146695;574;46008;-66
2021/06/07 06:28:59;;;;;;;12.63;5.82;;;;;;;26.31;51.84;101133.44;146693;573;46016;-66
2021/06/07 06:31:30;;;;;;;10.20;5.78;;;;;;;26.32;51.60;101129.72;146695;625;46008;-68
2021/06/07 06:34:02;;;;;;;10.48;5.72;;;;;;;26.37;51.57;101133.84;146690;590;47010;-69
2021/06/07 06:36:33;;;;;;;7.87;4.97;;;;;;;26.41;52.17;101132.59;146689;573;47008;-65
2021/06/07 06:39:06;;;;;;;9.77;5.15;;;;;;;26.45;51.48;101129.50;146692;591;46014;-65
2021/06/07 06:41:37;;;;;;;9.80;5.50;;;;;;;26.59;51.64;101132.81;146694;623;46020;-65
2021/06/07 06:44:08;;;;;;;10.75;5.30;;;;;;;26.64;51.69;101134.09;146692;608;46903;-66
2021/06/07 06:46:38;;;;;;;13.13;5.22;;;;;;;26.80;51.02;101122.81;146694;611;46008;-66
2021/06/07 06:49:09;;;;;;;7.40;5.07;;;;;;;26.80;51.20;101122.81;146688;585;47010;-65
2021/06/07 06:51:40;;;;;;;7.25;4.87;;;;;;;26.84;51.41;101128.78;146694;634;46008;-66
2021/06/07 06:54:11;;;;;;;12.25;6.00;;;;;;;27.00;51.12;101122.84;146692;593;46014;-66
2021/06/07 06:56:41;;;;;;;9.23;5.45;;;;;;;26.94;51.18;101123.41;146694;597;46008;-66
2021/06/07 06:59:12;;;;;;;13.90;5.50;;;;;;;26.96;50.58;101124.97;146690;565;46020;-66
2021/06/07 07:01:43;;;;;;;12.80;4.87;;;;;;;27.06;50.04;101127.66;146695;603;46020;-66
2021/06/07 07:04:14;;;;;;;10.18;5.00;;;;;;;27.13;50.12;101130.66;146692;636;46010;-66
2021/06/07 07:06:44;;;;;;;10.57;4.85;;;;;;;27.26;48.81;101122.28;146691;583;46021;-66
2021/06/07 07:09:15;;;;;;;12.00;5.40;;;;;;;27.34;48.74;101119.75;146691;566;46016;-66
2021/06/07 07:11:45;;;;;;;7.70;4.78;;;;;;;27.30;48.04;101113.78;146694;589;46008;-66
2021/06/07 07:14:16;;;;;;;8.38;4.60;;;;;;;27.42;47.83;101108.25;146690;809;46016;-66
2021/06/07 07:16:46;;;;;;;12.20;5.25;;;;;;;27.47;47.95;101108.69;146692;631;46021;-65
2021/06/07 07:19:17;;;;;;;13.00;5.20;;;;;;;27.62;48.14;101098.28;146691;751;46016;-66
2021/06/07 07:21:48;;;;;;;9.95;4.65;;;;;;;27.61;46.84;101105.53;146694;789;46021;-66
2021/06/07 07:24:19;;;;;;;9.30;4.60;;;;;;;27.59;46.02;101106.69;146692;594;46031;-66
2021/06/07 07:26:49;;;;;;;5.50;4.05;;;;;;;27.52;43.56;101120.72;146694;669;46020;-66
2021/06/07 07:29:20;;;;;;;7.37;3.90;;;;;;;27.55;45.03;101122.28;146689;649;47010;-66
2021/06/07 07:31:50;;;;;;;7.53;4.25;;;;;;;27.62;44.97;101127.97;146696;593;46008;-62
2021/06/07 07:34:21;;;;;;;10.88;4.53;;;;;;;27.62;46.17;101136.88;146692;605;46016;-63
2021/06/07 07:36:51;;;;;;;9.57;4.68;;;;;;;27.58;46.96;101127.38;146692;572;47008;-66
2021/06/07 07:39:22;;;;;;;9.27;5.00;;;;;;;27.55;47.85;101121.44;146691;717;46014;-65
2021/06/07 07:41:53;;;;;;;9.20;4.70;;;;;;;27.52;47.72;101127.97;146694;569;46020;-64
2021/06/07 07:44:24;;;;;;;9.18;4.57;;;;;;;27.50;46.75;101136.22;146693;636;46014;-66
2021/06/07 07:46:55;;;;;;;8.48;4.45;;;;;;;27.59;46.81;101128.25;146695;615;46020;-64
2021/06/07 07:49:25;;;;;;;9.10;4.62;;;;;;;27.82;46.72;101140.41;146691;569;46016;-64
2021/06/07 07:51:55;;;;;;;7.18;4.47;;;;;;;28.00;46.26;101143.22;146693;579;46021;-63
2021/06/07 07:54:26;;;;;;;7.87;4.40;;;;;;;28.07;45.85;101148.06;146691;631;46014;-64
2021/06/07 07:56:57;;;;;;;5.55;4.20;;;;;;;28.18;45.17;101146.00;146693;574;47008;-63
2021/06/07 07:59:28;;;;;;;9.48;4.55;;;;;;;28.22;45.23;101149.28;146694;581;46011;-65
2021/06/07 08:01:58;;;;;;;10.25;5.00;;;;;;;28.24;44.99;101136.50;146694;829;46020;-65
2021/06/07 08:04:29;;;;;;;11.88;5.60;;;;;;;28.25;45.93;101140.88;146692;573;46014;-65
2021/06/07 08:06:59;;;;;;;10.05;5.10;;;;;;;28.40;45.40;101145.78;146694;616;46021;-65
2021/06/07 08:09:31;;;;;;;12.00;5.43;;;;;;;28.35;45.42;101130.88;146690;589;47021;-65
2021/06/07 08:12:02;;;;;;;21.60;8.25;;;;;;;28.36;45.33;101131.72;146695;736;46020;-66
2021/06/07 08:14:33;;;;;;;18.10;6.12;;;;;;;28.33;45.16;101132.03;146691;590;46014;-66
2021/06/07 08:17:04;;;;;;;13.23;5.20;;;;;;;28.27;45.57;101119.13;146695;632;46008;-64
2021/06/07 08:19:34;;;;;;;9.77;4.68;;;;;;;28.23;45.68;101121.28;146691;613;46903;-65
2021/06/07 08:22:05;;;;;;;7.43;4.68;;;;;;;28.19;45.54;101123.41;146695;621;45032;-65
2021/06/07 08:24:36;;;;;;;7.07;4.53;;;;;;;28.19;45.16;101128.81;146692;595;46014;-65
2021/06/07 08:27:07;;;;;;;6.07;4.35;;;;;;;28.22;44.75;101129.53;146695;614;46020;-65
2021/06/07 08:29:38;;;;;;;5.72;4.18;;;;;;;28.31;44.37;101129.50;146689;596;46018;-66
2021/06/07 08:32:09;;;;;;;5.90;4.25;;;;;;;28.45;43.00;101130.84;146694;622;46020;-65
2021/06/07 08:34:39;;;;;;;5.90;4.10;;;;;;;28.41;42.26;101129.44;146692;619;46014;-65
2021/06/07 08:37:10;;;;;;;8.20;4.47;;;;;;;28.42;42.35;101116.78;146697;608;46009;-65
2021/06/07 08:39:41;;;;;;;7.90;4.60;;;;;;;28.53;42.22;101112.03;146692;607;46902;-64
2021/06/07 08:42:11;;;;;;;7.30;4.37;;;;;;;28.63;41.95;101112.00;146698;581;46008;-66
2021/06/07 08:44:42;;;;;;;7.55;4.03;;;;;;;28.67;41.14;101102.59;146693;772;46017;-65
2021/06/07 08:47:12;;;;;;;8.68;4.25;;;;;;;28.72;41.14;101090.47;146696;565;46020;-65
2021/06/07 08:49:43;;;;;;;7.72;4.47;;;;;;;28.67;41.32;101096.34;146689;632;46016;-66
2021/06/07 08:52:15;;;;;;;6.40;4.37;;;;;;;28.69;40.91;101094.31;146693;564;45036;-67
2021/06/07 08:54:48;;;;;;;7.43;4.22;;;;;;;28.63;40.95;101098.50;146689;611;46016;-66
2021/06/07 08:57:19;;;;;;;6.87;4.03;;;;;;;28.65;40.72;101103.75;146690;579;47008;-66
2021/06/07 08:59:49;;;;;;;7.35;4.10;;;;;;;28.74;40.83;101100.12;146690;587;46017;-66
2021/06/07 09:02:35;;;;;;;5.80;3.83;;;;;;;28.79;40.78;101103.22;146693;570;46020;-67
2021/06/07 09:05:07;;;;;;;5.60;4.30;;;;;;;28.95;40.29;101090.87;146689;623;46016;-66
2021/06/07 09:08:07;;;;;;;6.47;3.97;;;;;;;29.01;39.04;101084.87;146692;639;46021;-66
2021/06/07 09:10:52;;;;;;;9.32;4.25;;;;;;;29.08;39.70;101087.81;146689;576;46016;-67
2021/06/07 09:13:27;;;;;;;6.82;4.18;;;;;;;29.06;39.68;101087.09;146694;623;46021;-67
2021/06/07 09:16:00;;;;;;;5.85;4.00;;;;;;;28.90;39.89;101090.47;146689;573;46016;-66
2021/06/07 09:18:41;;;;;;;7.18;4.18;;;;;;;28.80;40.57;101085.16;146693;602;46020;-66
2021/06/07 09:21:23;;;;;;;6.12;3.95;;;;;;;28.74;40.35;101089.31;146689;599;46017;-66
2021/06/07 09:24:04;;;;;;;6.43;4.10;;;;;;;28.72;41.64;101082.38;146693;612;46020;-66
2021/06/07 09:26:43;;;;;;;6.47;4.12;;;;;;;28.90;40.66;101085.94;146691;601;46010;-67
2021/06/07 09:29:39;;;;;;;8.07;3.92;;;;;;;28.95;40.60;101071.97;146693;582;46020;-66
2021/06/07 09:32:19;;;;;;;6.32;3.90;;;;;;;28.98;40.02;101082.44;146687;573;47011;-66
2021/06/07 09:35:10;;;;;;;6.80;3.97;;;;;;;28.83;40.54;101077.59;146692;580;46020;-66
2021/06/07 09:37:41;;;;;;;5.75;3.92;;;;;;;28.84;40.41;101073.91;146687;608;47010;-65
2021/06/07 09:40:22;;;;;;;5.65;4.00;;;;;;;28.69;40.69;101067.31;146696;634;46020;-65
2021/06/07 09:43:01;;;;;;;5.75;3.70;;;;;;;28.51;40.23;101062.75;146690;614;46016;-66
2021/06/07 09:45:44;;;;;;;5.93;4.00;;;;;;;28.41;40.89;101059.22;146690;607;46024;-65
2021/06/07 09:48:17;;;;;;;5.20;4.05;;;;;;;28.41;41.05;101066.50;146690;570;46016;-67
2021/06/07 09:51:01;;;;;;;5.97;3.87;;;;;;;28.22;41.93;101078.25;146694;617;46008;-65
2021/06/07 09:53:57;;;;;;;8.13;3.92;;;;;;;28.28;42.46;101069.53;146690;563;46010;-65
2021/06/07 09:56:28;;;;;;;5.70;4.10;;;;;;;28.28;42.05;101072.22;146692;616;46020;-66
2021/06/07 09:58:58;;;;;;;6.22;3.95;;;;;;;28.30;42.33;101059.44;146685;582;47010;-66
2021/06/07 10:01:31;;;;;;;5.85;3.90;;;;;;;28.33;40.20;101056.44;146692;619;46008;-67
2021/06/07 10:04:02;;;;;;;6.10;3.95;;;;;;;28.46;41.30;101056.94;146688;603;46016;-66
2021/06/07 10:06:35;;;;;;;9.32;4.00;;;;;;;28.47;42.99;101063.16;146693;564;46021;-67
2021/06/07 10:09:12;;;;;;;5.77;4.10;;;;;;;28.52;42.30;101053.59;146690;611;46014;-65
2021/06/07 10:11:45;;;;;;;7.90;4.07;;;;;;;28.47;42.03;101064.03;146690;563;46020;-65
2021/06/07 10:14:22;;;;;;;6.80;4.35;;;;;;;28.43;42.34;101057.25;146689;565;46023;-65
2021/06/07 10:17:01;;;;;;;5.65;4.20;;;;;;;28.29;43.51;101060.44;146694;579;46020;-66
2021/06/07 10:19:59;;;;;;;5.70;4.00;;;;;;;28.39;43.49;101057.69;146687;612;46018;-66
2021/06/07 10:22:29;;;;;;;6.55;3.90;;;;;;;28.25;43.72;101054.47;146690;629;46026;-66
2021/06/07 10:25:00;;;;;;;6.57;3.87;;;;;;;28.24;42.86;101051.94;146691;745;46014;-66
2021/06/07 10:27:31;;;;;;;5.65;4.20;;;;;;;28.14;42.36;101052.84;146693;594;46009;-66
2021/06/07 10:30:05;;;;;;;7.32;4.32;;;;;;;28.00;43.37;101045.25;146691;614;46014;-66
2021/06/07 10:32:35;;;;;;;6.90;4.20;;;;;;;28.02;44.26;101054.03;146696;573;46008;-65
2021/06/07 10:35:08;;;;;;;6.35;4.40;;;;;;;27.92;44.77;101047.81;146690;618;46016;-65
2021/06/07 10:38:10;;;;;;;5.07;4.32;;;;;;;27.79;45.20;101059.78;146690;614;47008;-65
2021/06/07 10:40:43;;;;;;;6.03;4.37;;;;;;;27.82;44.52;101053.25;146689;630;46016;-66
2021/06/07 10:43:14;;;;;;;8.18;4.53;;;;;;;27.85;44.81;101044.84;146693;570;46008;-65
2021/06/07 10:45:46;;;;;;;6.57;4.12;;;;;;;27.84;45.30;101035.91;146687;570;47010;-66
2021/06/07 10:48:33;;;;;;;6.10;4.10;;;;;;;27.74;45.16;101029.69;146692;589;46008;-66
2021/06/07 10:51:09;;;;;;;4.72;4.05;;;;;;;27.80;45.02;101025.56;146689;608;46018;-65
2021/06/07 10:53:39;;;;;;;6.15;4.15;;;;;;;27.85;44.61;101017.88;146692;588;46008;-67
2021/06/07 10:56:12;;;;;;;5.32;4.15;;;;;;;27.85;44.67;101023.28;146688;624;47010;-66
2021/06/07 10:58:55;;;;;;;7.62;4.22;;;;;;;27.81;44.50;101025.41;146694;599;46021;-66
2021/06/07 11:01:59;;;;;;;6.55;3.78;;;;;;;27.78;44.76;101028.41;146690;584;46016;-66
2021/06/07 11:04:37;;;;;;;5.60;3.90;;;;;;;27.84;44.37;101019.75;146691;608;46020;-65
2021/06/07 11:07:19;;;;;;;6.15;4.10;;;;;;;27.99;44.06;101013.84;146689;610;46902;-66
2021/06/07 11:10:20;;;;;;;6.95;3.90;;;;;;;28.09;44.39;101005.72;146695;571;46020;-66
2021/06/07 11:13:06;;;;;;;5.32;4.00;;;;;;;28.13;44.12;100991.78;146691;636;46014;-66
2021/06/07 11:15:59;;;;;;;5.20;3.28;;;;;;;28.19;43.56;100988.47;146694;571;46020;-65
2021/06/07 11:18:39;;;;;;;6.45;3.90;;;;;;;28.25;43.77;100994.25;146690;624;46010;-65
2021/06/07 11:21:47;;;;;;;5.68;3.58;;;;;;;28.09;43.35;100971.50;146695;603;45021;-66
2021/06/07 11:24:38;;;;;;;5.97;3.45;;;;;;;28.12;43.23;100971.19;146691;597;46014;-66
2021/06/07 11:27:40;;;;;;;5.53;3.47;;;;;;;27.92;43.99;100945.28;146691;594;46021;-66
2021/06/07 11:30:15;;;;;;;5.90;3.67;;;;;;;28.01;43.37;100960.59;146690;625;46014;-65
2021/06/07 11:32:46;;;;;;;10.88;3.83;;;;;;;28.04;43.64;100949.50;146692;569;46020;-65
2021/06/07 11:35:44;;;;;;;5.90;3.90;;;;;;;28.05;43.11;100950.34;146693;893;46017;-67
2021/06/07 11:38:40;;;;;;;5.20;3.50;;;;;;;28.14;43.32;100944.88;146691;569;46020;-66
2021/06/07 11:41:45;;;;;;;5.57;3.47;;;;;;;28.24;42.12;100943.97;146689;587;46010;-66
2021/06/07 11:44:18;;;;;;;7.68;3.35;;;;;;;28.33;42.15;100943.06;146694;593;46008;-65
2021/06/07 11:46:55;;;;;;;6.50;3.60;;;;;;;28.53;41.20;100939.19;146691;599;46010;-66
2021/06/07 11:49:28;;;;;;;6.93;3.62;;;;;;;28.59;40.43;100942.28;146691;590;46020;-67